Climatologie pour Saint-Brevin les Pins
Jour • Résumé pour juillet 15, 2017 Système :  Métrique    Anglais   Mixte
« - 1 jour
+ 1 jour »
Jour Semaine Mois Année Personnalisé
  Maximum : Minimum : Moyenne :
Température sous abri : 24.9 °C 11.2 °C 18.4 °C
Point de rosée : 17.0 °C 10.2 °C 13.7 °C
Humidité : 95 % 48 % 76 %
Vitesse du vent : 17.7 km/h 0.0 km/h 4.7 km/h
Rafale : 25.7 km/h - -
Direction :- - South
Pression : 1025.3 hPa 1023.6 hPa -
Précipitations : 0.0 mm    
Historical Graphs
 
 
Tableau de données pour juillet 15, 2017
Heure Tempé Pt rosée Pression Vent Vitesse Rafale Humidité Taux pluie (/hr) Soleil
00:00 16.9 °C 13.0 °C 1024.3 hPa North 1.6 km/h 16.1 km/h 78 % 0.0 mm 0 W/m2
00:10 16.6 °C 12.8 °C 1024.3 hPa NNE 4.8 km/h 16.1 km/h 78 % 0.0 mm 0 W/m2
00:15 16.6 °C 12.7 °C 1024.6 hPa Calm   16.1 km/h 78 % 0.0 mm 0 W/m2
00:20 16.5 °C 12.6 °C 1024.6 hPa NNE 3.2 km/h 12.9 km/h 78 % 0.0 mm 0 W/m2
00:25 16.3 °C 12.5 °C 1024.6 hPa NE 8.0 km/h 12.9 km/h 78 % 0.0 mm 0 W/m2
00:30 16.2 °C 12.6 °C 1024.6 hPa North 4.8 km/h 12.9 km/h 79 % 0.0 mm 0 W/m2
00:35 16.1 °C 12.5 °C 1024.6 hPa North 1.6 km/h 16.1 km/h 79 % 0.0 mm 0 W/m2
00:40 16.0 °C 12.4 °C 1024.6 hPa NE 6.4 km/h 16.1 km/h 79 % 0.0 mm 0 W/m2
00:50 15.8 °C 12.3 °C 1024.6 hPa NE 9.7 km/h 11.3 km/h 80 % 0.0 mm 0 W/m2
00:55 15.7 °C 12.2 °C 1024.6 hPa Calm   11.3 km/h 80 % 0.0 mm 0 W/m2
01:00 15.6 °C 12.3 °C 1024.6 hPa NE 8.0 km/h 12.9 km/h 81 % 0.0 mm 0 W/m2
01:05 15.4 °C 12.1 °C 1024.6 hPa NNE 4.8 km/h 12.9 km/h 81 % 0.0 mm 0 W/m2
01:10 15.4 °C 12.3 °C 1024.6 hPa Calm   12.9 km/h 82 % 0.0 mm 0 W/m2
01:15 15.3 °C 12.3 °C 1024.6 hPa NNE 4.8 km/h 12.9 km/h 82 % 0.0 mm 0 W/m2
01:20 15.2 °C 12.1 °C 1024.6 hPa NE 4.8 km/h 12.9 km/h 82 % 0.0 mm 0 W/m2
01:25 15.1 °C 12.0 °C 1024.6 hPa North 3.2 km/h 12.9 km/h 82 % 0.0 mm 0 W/m2
01:35 15.0 °C 12.1 °C 1024.6 hPa NNE 3.2 km/h 12.9 km/h 83 % 0.0 mm 0 W/m2
01:40 14.9 °C 12.0 °C 1024.6 hPa NNE 3.2 km/h 9.7 km/h 83 % 0.0 mm 0 W/m2
01:45 14.8 °C 11.9 °C 1024.6 hPa NE 1.6 km/h 11.3 km/h 83 % 0.0 mm 0 W/m2
01:55 14.6 °C 11.9 °C 1024.6 hPa NNE 6.4 km/h 12.9 km/h 84 % 0.0 mm 0 W/m2
02:00 14.7 °C 12.0 °C 1024.6 hPa NNE 3.2 km/h 14.5 km/h 84 % 0.0 mm 0 W/m2
02:05 14.7 °C 11.9 °C 1024.6 hPa NNE 8.0 km/h 14.5 km/h 83 % 0.0 mm 0 W/m2
02:10 14.6 °C 11.8 °C 1024.6 hPa NNE 1.6 km/h 12.9 km/h 83 % 0.0 mm 0 W/m2
02:20 14.5 °C 11.8 °C 1024.6 hPa Calm   12.9 km/h 84 % 0.0 mm 0 W/m2
02:30 14.2 °C 11.6 °C 1024.6 hPa North 1.6 km/h 11.3 km/h 84 % 0.0 mm 0 W/m2
02:35 14.1 °C 11.6 °C 1024.6 hPa NNE 1.6 km/h 9.7 km/h 85 % 0.0 mm 0 W/m2
02:40 14.0 °C 11.7 °C 1024.6 hPa Calm   8.0 km/h 86 % 0.0 mm 0 W/m2
02:45 13.9 °C 11.6 °C 1024.6 hPa ENE 1.6 km/h 8.0 km/h 86 % 0.0 mm 0 W/m2
02:50 14.0 °C 11.7 °C 1024.6 hPa NE 3.2 km/h 8.0 km/h 86 % 0.0 mm 0 W/m2
02:55 13.9 °C 11.6 °C 1024.6 hPa ENE 1.6 km/h 6.4 km/h 86 % 0.0 mm 0 W/m2
03:05 13.6 °C 11.3 °C 1024.6 hPa Calm   8.0 km/h 86 % 0.0 mm 0 W/m2
03:10 13.4 °C 11.3 °C 1024.3 hPa NE 1.6 km/h 4.8 km/h 87 % 0.0 mm 0 W/m2
03:15 13.3 °C 11.2 °C 1024.3 hPa ENE 1.6 km/h 6.4 km/h 87 % 0.0 mm 0 W/m2
03:20 13.2 °C 11.3 °C 1024.3 hPa Calm   6.4 km/h 88 % 0.0 mm 0 W/m2
03:25 13.1 °C 11.2 °C 1024.3 hPa NNE 1.6 km/h 6.4 km/h 88 % 0.0 mm 0 W/m2
03:30 13.1 °C 11.3 °C 1024.3 hPa Calm   6.4 km/h 89 % 0.0 mm 0 W/m2
03:35 13.0 °C 11.2 °C 1024.3 hPa North 4.8 km/h 6.4 km/h 89 % 0.0 mm 0 W/m2
03:40 12.9 °C 11.2 °C 1024.3 hPa NE 1.6 km/h 8.0 km/h 89 % 0.0 mm 0 W/m2
03:50 12.7 °C 11.0 °C 1024.3 hPa NE 3.2 km/h 6.4 km/h 89 % 0.0 mm 0 W/m2
03:55 12.6 °C 11.0 °C 1024.3 hPa NE 1.6 km/h 6.4 km/h 90 % 0.0 mm 0 W/m2
04:00 12.3 °C 10.7 °C 1024.3 hPa NE 1.6 km/h 4.8 km/h 90 % 0.0 mm 0 W/m2
04:05 12.2 °C 10.8 °C 1024.3 hPa NE 1.6 km/h 4.8 km/h 91 % 0.0 mm 0 W/m2
04:10 12.1 °C 10.6 °C 1024.3 hPa NE 3.2 km/h 4.8 km/h 91 % 0.0 mm 0 W/m2
04:15 12.0 °C 10.7 °C 1024.3 hPa NE 1.6 km/h 4.8 km/h 92 % 0.0 mm 0 W/m2
04:20 11.9 °C 10.7 °C 1024.3 hPa NE 1.6 km/h 4.8 km/h 92 % 0.0 mm 0 W/m2
04:25 11.9 °C 10.6 °C 1024.3 hPa NE 1.6 km/h 4.8 km/h 92 % 0.0 mm 0 W/m2
04:35 11.9 °C 10.8 °C 1024.3 hPa NE 1.6 km/h 4.8 km/h 93 % 0.0 mm 0 W/m2
04:40 11.9 °C 10.6 °C 1024.3 hPa Calm   4.8 km/h 92 % 0.0 mm 0 W/m2
04:45 11.9 °C 10.8 °C 1024.3 hPa NNE 1.6 km/h 4.8 km/h 93 % 0.0 mm 0 W/m2
04:50 11.8 °C 10.7 °C 1024.3 hPa NNE 1.6 km/h 6.4 km/h 93 % 0.0 mm 0 W/m2
04:55 11.9 °C 10.8 °C 1024.3 hPa Calm   6.4 km/h 93 % 0.0 mm 0 W/m2
05:00 11.9 °C 10.8 °C 1024.3 hPa Calm   4.8 km/h 93 % 0.0 mm 0 W/m2
05:05 11.8 °C 10.7 °C 1024.3 hPa NNE 3.2 km/h 3.2 km/h 93 % 0.0 mm 0 W/m2
05:10 11.7 °C 10.6 °C 1024.3 hPa NNE 1.6 km/h 6.4 km/h 93 % 0.0 mm 0 W/m2
05:20 11.7 °C 10.8 °C 1024.3 hPa NNE 3.2 km/h 6.4 km/h 94 % 0.0 mm 0 W/m2
05:25 11.9 °C 11.0 °C 1024.3 hPa Calm   4.8 km/h 94 % 0.0 mm 0 W/m2
05:30 11.8 °C 10.7 °C 1024.3 hPa NNE 4.8 km/h 6.4 km/h 93 % 0.0 mm 0 W/m2
05:35 11.9 °C 11.0 °C 1024.3 hPa Calm   6.4 km/h 94 % 0.0 mm 0 W/m2
05:40 11.8 °C 10.8 °C 1024.3 hPa NE 4.8 km/h 6.4 km/h 94 % 0.0 mm 0 W/m2
05:45 11.8 °C 10.7 °C 1024.6 hPa NNE 3.2 km/h 8.0 km/h 93 % 0.0 mm 0 W/m2
05:50 11.8 °C 10.7 °C 1024.6 hPa NNE 1.6 km/h 8.0 km/h 93 % 0.0 mm 0 W/m2
05:55 11.9 °C 10.8 °C 1024.6 hPa NNE 6.4 km/h 8.0 km/h 93 % 0.0 mm 0 W/m2
06:05 11.9 °C 10.8 °C 1024.6 hPa Calm   6.4 km/h 93 % 0.0 mm 0 W/m2
06:10 11.8 °C 10.7 °C 1024.6 hPa Calm   3.2 km/h 93 % 0.0 mm 0 W/m2
06:15 11.6 °C 10.7 °C 1024.6 hPa Calm   4.8 km/h 94 % 0.0 mm 0 W/m2
06:20 11.7 °C 10.7 °C 1024.6 hPa Calm   4.8 km/h 94 % 0.0 mm 0 W/m2
06:25 11.6 °C 10.6 °C 1024.6 hPa Calm   3.2 km/h 94 % 0.0 mm 0 W/m2
06:30 11.3 °C 10.3 °C 1024.6 hPa Calm   3.2 km/h 94 % 0.0 mm 5 W/m2
06:35 11.2 °C 10.3 °C 1024.6 hPa Calm   3.2 km/h 94 % 0.0 mm 7 W/m2
06:40 11.2 °C 10.2 °C 1024.6 hPa Calm   3.2 km/h 94 % 0.0 mm 11 W/m2
06:50 11.2 °C 10.4 °C 1024.6 hPa Calm   3.2 km/h 95 % 0.0 mm 16 W/m2
06:55 11.2 °C 10.4 °C 1024.6 hPa Calm   3.2 km/h 95 % 0.0 mm 19 W/m2
07:00 11.2 °C 10.5 °C 1024.6 hPa Calm   4.8 km/h 95 % 0.0 mm 23 W/m2
07:05 11.3 °C 10.6 °C 1024.6 hPa Calm   4.8 km/h 95 % 0.0 mm 26 W/m2
07:10 11.6 °C 10.8 °C 1024.6 hPa Calm   6.4 km/h 95 % 0.0 mm 30 W/m2
07:15 11.6 °C 10.8 °C 1024.9 hPa Calm   6.4 km/h 95 % 0.0 mm 33 W/m2
07:20 11.8 °C 11.0 °C 1024.9 hPa NNE 3.2 km/h 8.0 km/h 95 % 0.0 mm 37 W/m2
07:25 12.1 °C 11.3 °C 1024.9 hPa Calm   9.7 km/h 95 % 0.0 mm 42 W/m2
07:35 12.5 °C 11.7 °C 1024.9 hPa NNE 1.6 km/h 8.0 km/h 95 % 0.0 mm 47 W/m2
07:40 12.7 °C 11.9 °C 1024.9 hPa NE 1.6 km/h 8.0 km/h 95 % 0.0 mm 49 W/m2
07:45 12.9 °C 11.9 °C 1024.9 hPa NE 1.6 km/h 6.4 km/h 94 % 0.0 mm 53 W/m2
07:50 13.1 °C 12.1 °C 1024.9 hPa Calm   6.4 km/h 94 % 0.0 mm 58 W/m2
07:55 13.3 °C 12.2 °C 1024.9 hPa NE 3.2 km/h 6.4 km/h 93 % 0.0 mm 65 W/m2
08:00 13.5 °C 12.4 °C 1024.9 hPa North 4.8 km/h 8.0 km/h 93 % 0.0 mm 67 W/m2
08:05 13.7 °C 12.6 °C 1024.9 hPa Calm   8.0 km/h 93 % 0.0 mm 95 W/m2
08:10 13.9 °C 12.6 °C 1024.9 hPa Calm   8.0 km/h 92 % 0.0 mm 223 W/m2
08:20 14.5 °C 13.0 °C 1024.9 hPa ENE 1.6 km/h 11.3 km/h 91 % 0.0 mm 243 W/m2
08:25 14.7 °C 13.1 °C 1024.9 hPa NE 6.4 km/h 11.3 km/h 90 % 0.0 mm 257 W/m2
08:30 14.9 °C 13.1 °C 1024.9 hPa ENE 1.6 km/h 11.3 km/h 89 % 0.0 mm 271 W/m2
08:35 15.1 °C 13.1 °C 1025.3 hPa NE 1.6 km/h 11.3 km/h 88 % 0.0 mm 281 W/m2
08:40 15.4 °C 13.2 °C 1024.9 hPa East 1.6 km/h 9.7 km/h 87 % 0.0 mm 294 W/m2
08:45 15.7 °C 13.3 °C 1024.9 hPa NE 6.4 km/h 12.9 km/h 86 % 0.0 mm 306 W/m2
08:50 15.9 °C 13.4 °C 1025.3 hPa ENE 4.8 km/h 12.9 km/h 85 % 0.0 mm 320 W/m2
08:55 16.1 °C 13.6 °C 1025.3 hPa ENE 8.0 km/h 12.9 km/h 85 % 0.0 mm 334 W/m2
09:05 16.4 °C 13.5 °C 1025.3 hPa NNE 4.8 km/h 12.9 km/h 83 % 0.0 mm 362 W/m2
09:10 16.7 °C 13.4 °C 1025.3 hPa ENE 6.4 km/h 12.9 km/h 81 % 0.0 mm 378 W/m2
09:15 16.9 °C 13.8 °C 1025.3 hPa NE 4.8 km/h 12.9 km/h 82 % 0.0 mm 392 W/m2
09:20 17.1 °C 13.6 °C 1025.3 hPa ENE 6.4 km/h 11.3 km/h 80 % 0.0 mm 404 W/m2
09:25 17.2 °C 13.5 °C 1025.3 hPa NNE 3.2 km/h 11.3 km/h 79 % 0.0 mm 417 W/m2
09:30 17.6 °C 13.9 °C 1025.3 hPa East 1.6 km/h 11.3 km/h 79 % 0.0 mm 432 W/m2
09:35 17.7 °C 13.8 °C 1025.3 hPa ENE 6.4 km/h 14.5 km/h 78 % 0.0 mm 441 W/m2
09:40 18.0 °C 14.1 °C 1025.3 hPa ENE 4.8 km/h 14.5 km/h 78 % 0.0 mm 462 W/m2
09:45 18.2 °C 13.7 °C 1025.3 hPa ENE 6.4 km/h 12.9 km/h 75 % 0.0 mm 475 W/m2
09:50 18.1 °C 13.4 °C 1025.3 hPa East 3.2 km/h 12.9 km/h 74 % 0.0 mm 487 W/m2
09:55 18.2 °C 13.9 °C 1025.3 hPa SE 3.2 km/h 12.9 km/h 76 % 0.0 mm 510 W/m2
10:00 18.3 °C 13.8 °C 1025.3 hPa NE 1.6 km/h 11.3 km/h 75 % 0.0 mm 527 W/m2
10:05 18.4 °C 13.7 °C 1025.3 hPa Calm   11.3 km/h 74 % 0.0 mm 541 W/m2
10:10 19.1 °C 14.1 °C 1025.3 hPa East 3.2 km/h 12.9 km/h 73 % 0.0 mm 555 W/m2
10:15 19.1 °C 13.9 °C 1025.3 hPa ENE 3.2 km/h 12.9 km/h 72 % 0.0 mm 561 W/m2
10:20 19.0 °C 13.8 °C 1025.3 hPa Calm   11.3 km/h 72 % 0.0 mm 575 W/m2
10:25 19.3 °C 13.5 °C 1025.3 hPa ESE 8.0 km/h 11.3 km/h 69 % 0.0 mm 578 W/m2
10:35 19.4 °C 13.3 °C 1025.3 hPa Calm   11.3 km/h 68 % 0.0 mm 605 W/m2
10:40 19.6 °C 13.9 °C 1025.3 hPa ENE 8.0 km/h 8.0 km/h 70 % 0.0 mm 621 W/m2
10:45 19.8 °C 13.7 °C 1025.3 hPa East 3.2 km/h 12.9 km/h 68 % 0.0 mm 621 W/m2
10:50 19.4 °C 14.0 °C 1025.3 hPa ENE 1.6 km/h 12.9 km/h 71 % 0.0 mm 642 W/m2
10:55 20.3 °C 14.5 °C 1025.3 hPa ENE 3.2 km/h 6.4 km/h 69 % 0.0 mm 654 W/m2
11:00 20.3 °C 13.7 °C 1025.3 hPa North 3.2 km/h 9.7 km/h 66 % 0.0 mm 656 W/m2
11:05 20.6 °C 14.3 °C 1025.3 hPa ENE 1.6 km/h 11.3 km/h 67 % 0.0 mm 673 W/m2
11:10 20.7 °C 13.7 °C 1025.3 hPa NE 6.4 km/h 12.9 km/h 64 % 0.0 mm 686 W/m2
11:20 21.3 °C 14.2 °C 1025.3 hPa NNW 4.8 km/h 12.9 km/h 64 % 0.0 mm 700 W/m2
11:25 20.9 °C 13.9 °C 1025.3 hPa SSW 4.8 km/h 12.9 km/h 64 % 0.0 mm 708 W/m2
11:30 21.2 °C 13.6 °C 1025.3 hPa ESE 3.2 km/h 6.4 km/h 62 % 0.0 mm 719 W/m2
11:35 21.8 °C 14.2 °C 1025.3 hPa ENE 6.4 km/h 8.0 km/h 62 % 0.0 mm 715 W/m2
11:40 22.0 °C 13.9 °C 1025.3 hPa NE 3.2 km/h 8.0 km/h 60 % 0.0 mm 742 W/m2
11:45 21.9 °C 13.8 °C 1025.3 hPa NNE 3.2 km/h 16.1 km/h 60 % 0.0 mm 749 W/m2
11:50 22.2 °C 13.8 °C 1025.3 hPa ENE 3.2 km/h 16.1 km/h 59 % 0.0 mm 749 W/m2
11:55 22.3 °C 13.6 °C 1025.3 hPa North 9.7 km/h 12.9 km/h 58 % 0.0 mm 763 W/m2
12:05 22.9 °C 13.7 °C 1025.3 hPa ENE 6.4 km/h 14.5 km/h 56 % 0.0 mm 777 W/m2
12:10 22.7 °C 13.4 °C 1024.9 hPa Calm   14.5 km/h 56 % 0.0 mm 795 W/m2
12:15 22.4 °C 13.5 °C 1024.9 hPa ENE 1.6 km/h 12.9 km/h 57 % 0.0 mm 796 W/m2
12:20 23.1 °C 13.6 °C 1024.9 hPa ESE 1.6 km/h 9.7 km/h 55 % 0.0 mm 803 W/m2
12:25 22.3 °C 13.4 °C 1024.9 hPa Calm   6.4 km/h 57 % 0.0 mm 809 W/m2
12:30 23.4 °C 14.2 °C 1025.3 hPa North 4.8 km/h 11.3 km/h 56 % 0.0 mm 814 W/m2
12:35 23.7 °C 14.1 °C 1025.3 hPa WNW 4.8 km/h 12.9 km/h 55 % 0.0 mm 823 W/m2
12:40 24.0 °C 13.8 °C 1024.9 hPa West 3.2 km/h 12.9 km/h 53 % 0.0 mm 831 W/m2
12:50 24.8 °C 13.3 °C 1025.3 hPa NW 3.2 km/h 16.1 km/h 49 % 0.0 mm 824 W/m2
12:55 24.1 °C 13.6 °C 1025.3 hPa North 9.7 km/h 12.9 km/h 52 % 0.0 mm 853 W/m2
13:00 24.9 °C 14.1 °C 1025.3 hPa NNW 11.3 km/h 16.1 km/h 51 % 0.0 mm 854 W/m2
13:05 24.3 °C 14.4 °C 1024.9 hPa NNE 9.7 km/h 16.1 km/h 54 % 0.0 mm 860 W/m2
13:10 24.7 °C 14.2 °C 1025.3 hPa NNW 4.8 km/h 14.5 km/h 52 % 0.0 mm 861 W/m2
13:15 24.6 °C 13.1 °C 1025.3 hPa North 1.6 km/h 17.7 km/h 49 % 0.0 mm 870 W/m2
13:20 24.4 °C 13.6 °C 1024.9 hPa ENE 12.9 km/h 17.7 km/h 51 % 0.0 mm 868 W/m2
13:25 24.6 °C 12.8 °C 1024.9 hPa Calm   14.5 km/h 48 % 0.0 mm 875 W/m2
13:35 24.6 °C 15.8 °C 1024.9 hPa NW 11.3 km/h 16.1 km/h 58 % 0.0 mm 874 W/m2
13:40 24.8 °C 15.5 °C 1024.9 hPa West 6.4 km/h 16.1 km/h 56 % 0.0 mm 875 W/m2
13:45 24.2 °C 15.2 °C 1024.9 hPa West 11.3 km/h 16.1 km/h 57 % 0.0 mm 877 W/m2
13:55 23.1 °C 14.9 °C 1025.3 hPa NW 16.1 km/h 22.5 km/h 60 % 0.0 mm 868 W/m2
14:00 23.1 °C 15.1 °C 1024.9 hPa WNW 11.3 km/h 20.9 km/h 61 % 0.0 mm 879 W/m2
14:05 22.9 °C 14.8 °C 1024.9 hPa West 8.0 km/h 19.3 km/h 60 % 0.0 mm 881 W/m2
14:10 23.4 °C 15.2 °C 1024.9 hPa WSW 8.0 km/h 19.3 km/h 60 % 0.0 mm 884 W/m2
14:20 23.7 °C 16.0 °C 1024.9 hPa West 14.5 km/h 19.3 km/h 62 % 0.0 mm 838 W/m2
14:25 22.7 °C 15.5 °C 1024.9 hPa WNW 12.9 km/h 17.7 km/h 64 % 0.0 mm 814 W/m2
14:30 22.3 °C 15.4 °C 1024.9 hPa West 16.1 km/h 20.9 km/h 65 % 0.0 mm 840 W/m2
14:40 22.1 °C 15.6 °C 1024.9 hPa West 4.8 km/h 24.1 km/h 67 % 0.0 mm 875 W/m2
14:45 22.7 °C 16.2 °C 1024.9 hPa West 12.9 km/h 22.5 km/h 67 % 0.0 mm 879 W/m2
14:50 23.2 °C 16.7 °C 1024.9 hPa West 6.4 km/h 16.1 km/h 67 % 0.0 mm 854 W/m2
14:55 23.0 °C 15.8 °C 1024.9 hPa WNW 12.9 km/h 22.5 km/h 64 % 0.0 mm 860 W/m2
15:05 23.1 °C 16.6 °C 1024.9 hPa WNW 3.2 km/h 22.5 km/h 67 % 0.0 mm 840 W/m2
15:10 22.3 °C 15.4 °C 1024.9 hPa WNW 11.3 km/h 24.1 km/h 65 % 0.0 mm 854 W/m2
15:15 22.1 °C 16.2 °C 1024.9 hPa WNW 4.8 km/h 24.1 km/h 69 % 0.0 mm 823 W/m2
15:20 23.1 °C 16.1 °C 1024.9 hPa NW 9.7 km/h 17.7 km/h 65 % 0.0 mm 831 W/m2
15:25 22.8 °C 15.9 °C 1024.6 hPa WNW 6.4 km/h 20.9 km/h 65 % 0.0 mm 824 W/m2
15:30 22.7 °C 15.6 °C 1024.6 hPa WNW 12.9 km/h 20.9 km/h 64 % 0.0 mm 835 W/m2
15:35 22.9 °C 15.7 °C 1024.6 hPa West 8.0 km/h 22.5 km/h 64 % 0.0 mm 821 W/m2
15:40 23.1 °C 15.6 °C 1024.6 hPa NW 9.7 km/h 22.5 km/h 63 % 0.0 mm 805 W/m2
15:50 23.7 °C 16.2 °C 1024.6 hPa WNW 16.1 km/h 20.9 km/h 63 % 0.0 mm 775 W/m2
15:55 23.3 °C 15.6 °C 1024.6 hPa West 12.9 km/h 24.1 km/h 62 % 0.0 mm 802 W/m2
16:00 23.2 °C 15.5 °C 1024.6 hPa WNW 9.7 km/h 24.1 km/h 62 % 0.0 mm 791 W/m2
16:05 23.8 °C 16.6 °C 1024.6 hPa West 4.8 km/h 20.9 km/h 64 % 0.0 mm 784 W/m2
16:10 23.4 °C 15.9 °C 1024.6 hPa West 14.5 km/h 20.9 km/h 63 % 0.0 mm 747 W/m2
16:15 22.9 °C 15.8 °C 1024.6 hPa West 16.1 km/h 20.9 km/h 64 % 0.0 mm 780 W/m2
16:20 23.1 °C 15.9 °C 1024.6 hPa WSW 4.8 km/h 22.5 km/h 64 % 0.0 mm 773 W/m2
16:25 23.1 °C 16.4 °C 1024.3 hPa WSW 9.7 km/h 25.7 km/h 66 % 0.0 mm 763 W/m2
16:30 23.4 °C 16.2 °C 1024.3 hPa West 4.8 km/h 25.7 km/h 64 % 0.0 mm 751 W/m2
16:40 24.8 °C 16.5 °C 1024.3 hPa NW 6.4 km/h 19.3 km/h 60 % 0.0 mm 689 W/m2
16:45 24.6 °C 16.5 °C 1024.3 hPa West 4.8 km/h 19.3 km/h 61 % 0.0 mm 710 W/m2
16:50 24.9 °C 16.4 °C 1024.3 hPa West 9.7 km/h 14.5 km/h 59 % 0.0 mm 693 W/m2
16:55 24.5 °C 16.5 °C 1024.3 hPa NW 9.7 km/h 14.5 km/h 61 % 0.0 mm 686 W/m2
17:00 24.3 °C 16.8 °C 1024.3 hPa WNW 11.3 km/h 16.1 km/h 63 % 0.0 mm 680 W/m2
17:05 24.6 °C 16.8 °C 1024.3 hPa West 6.4 km/h 16.1 km/h 62 % 0.0 mm 664 W/m2
17:10 24.2 °C 16.7 °C 1024.3 hPa WNW 16.1 km/h 20.9 km/h 63 % 0.0 mm 673 W/m2
17:20 24.4 °C 16.4 °C 1024.3 hPa West 11.3 km/h 16.1 km/h 61 % 0.0 mm 647 W/m2
17:25 24.1 °C 16.1 °C 1024.3 hPa WNW 9.7 km/h 22.5 km/h 61 % 0.0 mm 636 W/m2
17:30 23.6 °C 16.1 °C 1024.3 hPa WNW 9.7 km/h 22.5 km/h 63 % 0.0 mm 621 W/m2
17:35 23.7 °C 16.5 °C 1024.3 hPa West 12.9 km/h 22.5 km/h 64 % 0.0 mm 613 W/m2
17:40 23.7 °C 17.0 °C 1024.3 hPa WNW 3.2 km/h 22.5 km/h 66 % 0.0 mm 599 W/m2
17:45 24.1 °C 16.6 °C 1023.9 hPa West 11.3 km/h 19.3 km/h 63 % 0.0 mm 585 W/m2
17:50 23.3 °C 16.3 °C 1024.3 hPa SW 6.4 km/h 20.9 km/h 65 % 0.0 mm 570 W/m2
17:55 22.6 °C 16.2 °C 1023.9 hPa West 4.8 km/h 25.7 km/h 67 % 0.0 mm 559 W/m2
18:05 22.4 °C 16.0 °C 1023.9 hPa West 8.0 km/h 20.9 km/h 67 % 0.0 mm 531 W/m2
18:10 22.6 °C 16.4 °C 1023.9 hPa SW 8.0 km/h 20.9 km/h 68 % 0.0 mm 517 W/m2
18:15 23.1 °C 16.4 °C 1023.9 hPa WNW 3.2 km/h 19.3 km/h 66 % 0.0 mm 508 W/m2
18:20 22.6 °C 15.9 °C 1023.9 hPa WSW 6.4 km/h 20.9 km/h 66 % 0.0 mm 499 W/m2
18:25 22.2 °C 16.0 °C 1023.9 hPa SW 9.7 km/h 24.1 km/h 68 % 0.0 mm 485 W/m2
18:30 22.4 °C 16.4 °C 1023.9 hPa West 9.7 km/h 24.1 km/h 69 % 0.0 mm 471 W/m2
18:35 22.9 °C 16.5 °C 1023.9 hPa WSW 14.5 km/h 24.1 km/h 67 % 0.0 mm 457 W/m2
18:40 22.1 °C 16.1 °C 1023.6 hPa West 6.4 km/h 20.9 km/h 69 % 0.0 mm 448 W/m2
18:45 21.9 °C 16.0 °C 1023.9 hPa WNW 17.7 km/h 22.5 km/h 69 % 0.0 mm 434 W/m2
18:50 21.8 °C 16.1 °C 1023.9 hPa SSW 8.0 km/h 22.5 km/h 70 % 0.0 mm 420 W/m2
18:55 22.1 °C 16.3 °C 1023.6 hPa WNW 3.2 km/h 22.5 km/h 70 % 0.0 mm 401 W/m2
19:00 22.5 °C 16.3 °C 1023.6 hPa West 11.3 km/h 20.9 km/h 68 % 0.0 mm 380 W/m2
19:05 22.7 °C 16.2 °C 1023.6 hPa WSW 8.0 km/h 17.7 km/h 67 % 0.0 mm 366 W/m2
19:10 22.6 °C 16.4 °C 1023.6 hPa West 8.0 km/h 17.7 km/h 68 % 0.0 mm 343 W/m2
19:15 22.2 °C 16.3 °C 1023.6 hPa WSW 8.0 km/h 17.7 km/h 69 % 0.0 mm 348 W/m2
19:20 22.8 °C 16.8 °C 1023.6 hPa WSW 11.3 km/h 16.1 km/h 69 % 0.0 mm 334 W/m2
19:25 23.1 °C 16.4 °C 1023.6 hPa West 9.7 km/h 16.1 km/h 66 % 0.0 mm 315 W/m2
19:35 22.9 °C 16.3 °C 1023.6 hPa WSW 6.4 km/h 14.5 km/h 66 % 0.0 mm 279 W/m2
19:40 23.0 °C 16.5 °C 1023.6 hPa Calm   11.3 km/h 67 % 0.0 mm 269 W/m2
19:45 23.0 °C 16.5 °C 1023.6 hPa West 6.4 km/h 11.3 km/h 67 % 0.0 mm 255 W/m2
19:50 22.9 °C 16.7 °C 1023.6 hPa West 8.0 km/h 11.3 km/h 68 % 0.0 mm 239 W/m2
19:55 22.9 °C 16.5 °C 1023.6 hPa SW 1.6 km/h 12.9 km/h 67 % 0.0 mm 216 W/m2
20:00 22.9 °C 16.4 °C 1023.6 hPa West 4.8 km/h 12.9 km/h 67 % 0.0 mm 193 W/m2
20:05 22.9 °C 16.3 °C 1023.6 hPa West 4.8 km/h 11.3 km/h 66 % 0.0 mm 174 W/m2
20:10 22.8 °C 16.4 °C 1023.6 hPa WNW 3.2 km/h 12.9 km/h 67 % 0.0 mm 160 W/m2
20:20 22.3 °C 16.1 °C 1023.6 hPa SW 8.0 km/h 12.9 km/h 68 % 0.0 mm 146 W/m2
20:25 22.3 °C 15.9 °C 1023.6 hPa WNW 3.2 km/h 11.3 km/h 67 % 0.0 mm 137 W/m2
20:30 22.2 °C 15.8 °C 1023.6 hPa WNW 4.8 km/h 12.9 km/h 67 % 0.0 mm 116 W/m2
20:40 21.9 °C 15.5 °C 1023.6 hPa WNW 4.8 km/h 14.5 km/h 67 % 0.0 mm 70 W/m2
20:45 21.8 °C 15.6 °C 1023.6 hPa WSW 6.4 km/h 14.5 km/h 68 % 0.0 mm 49 W/m2
20:50 21.7 °C 16.0 °C 1023.6 hPa West 4.8 km/h 11.3 km/h 70 % 0.0 mm 37 W/m2
20:55 21.4 °C 16.0 °C 1023.6 hPa West 3.2 km/h 12.9 km/h 71 % 0.0 mm 35 W/m2
21:05 21.1 °C 14.9 °C 1023.6 hPa WNW 6.4 km/h 12.9 km/h 68 % 0.0 mm 32 W/m2
21:10 20.9 °C 15.2 °C 1023.6 hPa West 4.8 km/h 12.9 km/h 70 % 0.0 mm 30 W/m2
21:15 20.8 °C 15.1 °C 1023.6 hPa NW 8.0 km/h 11.3 km/h 70 % 0.0 mm 28 W/m2
21:20 20.6 °C 14.9 °C 1023.6 hPa WNW 6.4 km/h 9.7 km/h 70 % 0.0 mm 23 W/m2
21:25 20.4 °C 14.8 °C 1023.6 hPa WNW 1.6 km/h 8.0 km/h 70 % 0.0 mm 21 W/m2
21:30 20.3 °C 14.8 °C 1023.9 hPa WNW 3.2 km/h 9.7 km/h 71 % 0.0 mm 19 W/m2
21:35 20.2 °C 14.8 °C 1023.9 hPa NW 1.6 km/h 12.9 km/h 71 % 0.0 mm 18 W/m2
21:40 20.0 °C 14.6 °C 1023.9 hPa WNW 4.8 km/h 12.9 km/h 71 % 0.0 mm 14 W/m2
21:50 19.6 °C 14.6 °C 1023.9 hPa WNW 3.2 km/h 9.7 km/h 73 % 0.0 mm 9 W/m2
21:55 19.4 °C 14.7 °C 1023.9 hPa WNW 8.0 km/h 9.7 km/h 74 % 0.0 mm 5 W/m2
22:00 19.3 °C 14.5 °C 1023.9 hPa WNW 4.8 km/h 8.0 km/h 74 % 0.0 mm 5 W/m2
22:05 18.9 °C 14.6 °C 1023.9 hPa WNW 4.8 km/h 8.0 km/h 76 % 0.0 mm 0 W/m2
22:15 18.4 °C 14.7 °C 1023.9 hPa Calm   6.4 km/h 79 % 0.0 mm 0 W/m2
22:20 18.1 °C 14.6 °C 1024.3 hPa WNW 4.8 km/h 8.0 km/h 80 % 0.0 mm 0 W/m2
22:25 17.8 °C 14.7 °C 1024.3 hPa NW 6.4 km/h 8.0 km/h 82 % 0.0 mm 0 W/m2
22:35 17.5 °C 14.4 °C 1024.3 hPa WNW 4.8 km/h 12.9 km/h 82 % 0.0 mm 0 W/m2
22:40 17.6 °C 14.1 °C 1024.3 hPa Calm   12.9 km/h 80 % 0.0 mm 0 W/m2
22:45 17.6 °C 14.1 °C 1024.3 hPa NW 1.6 km/h 9.7 km/h 80 % 0.0 mm 0 W/m2
22:50 17.6 °C 13.9 °C 1024.3 hPa NW 4.8 km/h 8.0 km/h 79 % 0.0 mm 0 W/m2
22:55 17.4 °C 13.8 °C 1024.3 hPa WNW 1.6 km/h 8.0 km/h 79 % 0.0 mm 0 W/m2
23:00 17.2 °C 13.9 °C 1024.3 hPa Calm   4.8 km/h 81 % 0.0 mm 0 W/m2
23:05 16.9 °C 13.8 °C 1024.3 hPa WNW 1.6 km/h 6.4 km/h 82 % 0.0 mm 0 W/m2
23:10 16.8 °C 13.9 °C 1024.3 hPa WNW 3.2 km/h 6.4 km/h 83 % 0.0 mm 0 W/m2
23:20 16.6 °C 14.1 °C 1024.3 hPa NNW 3.2 km/h 9.7 km/h 85 % 0.0 mm 0 W/m2
23:25 16.4 °C 13.9 °C 1024.6 hPa NE 9.7 km/h 9.7 km/h 85 % 0.0 mm 0 W/m2
23:30 16.7 °C 14.3 °C 1024.6 hPa Calm   14.5 km/h 86 % 0.0 mm 0 W/m2
23:35 16.8 °C 14.3 °C 1024.6 hPa Calm   14.5 km/h 85 % 0.0 mm 0 W/m2
23:40 17.1 °C 14.7 °C 1024.3 hPa Calm   9.7 km/h 86 % 0.0 mm 0 W/m2
23:45 17.1 °C 14.7 °C 1024.3 hPa Calm   9.7 km/h 86 % 0.0 mm 0 W/m2
23:50 17.2 °C 14.8 °C 1024.3 hPa Calm   9.7 km/h 86 % 0.0 mm 0 W/m2
23:55 17.0 °C 14.8 °C 1024.6 hPa NW 4.8 km/h 8.0 km/h 87 % 0.0 mm 0 W/m2
Avec l'autorisation de Weather Underground - 1.5 mb